Time;durP1;ratioP1;P1;durP2;ratioP2;P2;SDS_P1;SDS_P2;PMS_P1;PMS_P2;Temp;Humidity;BMP_temperature;BMP_pressure;BME280_temperature;BME280_humidity;BME280_pressure;Samples;Min_cycle;Max_cycle;Signal;HPM_P1;HPM_P2
2022/07/04 00:01:45;;;;;;;1.00;1.00;;;22.30;99.90;;;;;;5109909;28;20202;-60
2022/07/04 00:04:12;;;;;;;1.10;1.10;;;22.40;99.90;;;;;;5109920;28;20196;-59
2022/07/04 00:06:39;;;;;;;1.05;1.05;;;22.40;99.90;;;;;;5103113;28;20200;-59
2022/07/04 00:09:06;;;;;;;0.82;0.82;;;22.30;99.90;;;;;;5098984;28;20200;-59
2022/07/04 00:11:33;;;;;;;0.98;0.98;;;22.30;99.90;;;;;;5111142;28;20288;-59
2022/07/04 00:14:02;;;;;;;1.10;1.10;;;22.30;99.90;;;;;;5110372;28;20671;-59
2022/07/04 00:16:29;;;;;;;2.00;1.00;;;22.30;99.90;;;;;;5110083;28;20223;-59
2022/07/04 00:18:56;;;;;;;1.20;1.10;;;22.30;99.90;;;;;;5110292;28;20676;-59
2022/07/04 00:21:23;;;;;;;0.90;0.90;;;22.20;99.90;;;;;;5108486;28;20204;-59
2022/07/04 00:23:50;;;;;;;0.95;0.95;;;22.20;99.90;;;;;;5108682;28;20187;-60
2022/07/04 00:26:17;;;;;;;1.00;1.00;;;22.20;99.90;;;;;;5110534;28;20223;-59
2022/07/04 00:28:44;;;;;;;1.10;1.00;;;22.20;99.90;;;;;;5109919;28;20667;-60
2022/07/04 00:31:13;;;;;;;0.98;0.98;;;22.10;99.90;;;;;;5110583;28;20227;-59
2022/07/04 00:33:40;;;;;;;1.92;1.83;;;22.20;99.90;;;;;;5109563;28;20215;-61
2022/07/04 00:36:07;;;;;;;1.83;1.73;;;22.10;99.90;;;;;;5108697;28;20200;-60
2022/07/04 00:38:34;;;;;;;1.70;1.60;;;22.10;99.90;;;;;;5101216;28;20207;-60
2022/07/04 00:41:01;;;;;;;1.42;1.42;;;22.10;99.90;;;;;;5105449;28;20624;-59
2022/07/04 00:43:29;;;;;;;1.35;1.27;;;22.10;99.90;;;;;;5108882;28;20227;-60
2022/07/04 00:45:56;;;;;;;1.27;1.15;;;22.10;99.90;;;;;;5104942;28;20282;-60
2022/07/04 00:48:25;;;;;;;1.02;1.02;;;22.10;99.90;;;;;;5108020;28;20233;-60
2022/07/04 00:50:53;;;;;;;1.10;1.10;;;22.10;99.90;;;;;;5110105;28;20204;-60
2022/07/04 00:53:23;;;;;;;1.17;1.10;;;22.10;99.90;;;;;;5109327;28;20256;-60
2022/07/04 00:55:51;;;;;;;1.30;1.20;;;22.10;99.90;;;;;;5109960;28;20227;-60
2022/07/04 00:58:20;;;;;;;1.23;1.23;;;22.10;99.90;;;;;;5109616;28;20556;-60
2022/07/04 01:00:47;;;;;;;0.98;0.98;;;22.10;99.90;;;;;;5109803;28;20249;-61
2022/07/04 01:03:15;;;;;;;1.20;1.20;;;22.00;99.90;;;;;;5109161;28;20198;-61
2022/07/04 01:05:43;;;;;;;1.30;1.00;;;22.00;99.90;;;;;;5109625;28;20273;-61
2022/07/04 01:08:11;;;;;;;1.17;1.10;;;22.00;99.90;;;;;;5109074;28;20194;-61
2022/07/04 01:10:38;;;;;;;0.98;0.98;;;21.90;99.90;;;;;;5110404;28;20218;-61
2022/07/04 01:13:05;;;;;;;0.82;0.82;;;21.90;99.90;;;;;;5094816;28;20208;-61
2022/07/04 01:15:33;;;;;;;1.10;1.10;;;21.90;99.90;;;;;;5109415;28;20215;-61
2022/07/04 01:18:00;;;;;;;1.00;1.00;;;21.90;99.90;;;;;;5108548;28;20202;-61
2022/07/04 01:20:35;;;;;;;0.95;0.80;;;21.90;99.90;;;;;;5109861;28;20196;-61
2022/07/04 01:23:02;;;;;;;0.95;0.93;;;21.90;99.90;;;;;;5109021;28;20279;-61
2022/07/04 01:25:29;;;;;;;1.00;1.00;;;21.90;99.90;;;;;;5100677;28;20249;-60
2022/07/04 01:27:56;;;;;;;0.90;0.90;;;21.90;99.90;;;;;;5109748;28;20269;-60
2022/07/04 01:30:23;;;;;;;1.20;1.20;;;21.80;99.90;;;;;;5109522;28;20688;-60
2022/07/04 01:32:50;;;;;;;1.30;1.20;;;21.80;99.90;;;;;;5108310;28;20196;-60
2022/07/04 01:35:17;;;;;;;1.10;1.10;;;21.80;99.90;;;;;;5096569;28;20307;-60
2022/07/04 01:37:46;;;;;;;1.48;1.38;;;21.70;99.90;;;;;;5099777;28;20216;-61
2022/07/04 01:40:14;;;;;;;1.00;1.00;;;21.70;99.90;;;;;;5104953;28;20203;-61
2022/07/04 01:42:42;;;;;;;1.45;1.45;;;21.70;99.90;;;;;;5107756;28;20249;-60
2022/07/04 01:45:10;;;;;;;2.00;1.40;;;21.70;99.90;;;;;;5105556;28;20245;-60
2022/07/04 01:47:38;;;;;;;1.27;1.17;;;21.60;99.90;;;;;;5105628;28;20219;-61
2022/07/04 01:50:07;;;;;;;1.50;1.40;;;21.60;99.90;;;;;;5113915;28;20192;-61
2022/07/04 01:52:34;;;;;;;1.20;1.20;;;21.60;99.90;;;;;;5110021;28;20210;-59
2022/07/04 01:55:03;;;;;;;1.55;1.40;;;21.50;99.90;;;;;;5113797;28;20294;-60
2022/07/04 01:57:30;;;;;;;1.70;1.60;;;21.50;99.90;;;;;;5113145;28;20585;-60
2022/07/04 02:02:41;;;;;;;1.20;1.20;;;21.50;99.90;;;;;;5107681;28;20262;-61
2022/07/04 02:05:09;;;;;;;1.48;1.33;;;21.50;99.90;;;;;;5114039;28;20215;-60
2022/07/04 02:07:36;;;;;;;1.77;1.45;;;21.50;99.90;;;;;;5104490;28;20196;-59
2022/07/04 02:10:05;;;;;;;1.17;1.10;;;21.50;99.90;;;;;;5112924;28;20264;-60
2022/07/04 02:15:16;;;;;;;1.13;1.13;;;21.40;99.90;;;;;;5105478;28;20203;-61
2022/07/04 02:17:43;;;;;;;1.17;1.17;;;21.40;99.90;;;;;;5111815;28;20192;-60
2022/07/04 02:20:11;;;;;;;1.45;1.35;;;21.40;99.90;;;;;;5112837;28;20196;-60
2022/07/04 02:22:38;;;;;;;1.10;1.10;;;21.30;99.90;;;;;;5107638;28;20567;-61
2022/07/04 02:25:08;;;;;;;1.27;1.27;;;21.30;99.90;;;;;;5099651;28;20265;-61
2022/07/04 02:27:35;;;;;;;1.20;1.20;;;21.40;99.90;;;;;;5110709;28;20607;-61
2022/07/04 02:30:03;;;;;;;1.23;1.23;;;21.40;99.90;;;;;;5098405;28;20215;-60
2022/07/04 02:32:30;;;;;;;1.20;1.10;;;21.40;99.90;;;;;;5111788;28;20296;-61
2022/07/04 02:34:57;;;;;;;1.10;1.10;;;21.40;99.90;;;;;;5113183;28;20272;-61
2022/07/04 02:37:24;;;;;;;0.93;0.93;;;21.40;99.90;;;;;;5110998;28;20204;-60
2022/07/04 02:39:51;;;;;;;1.00;1.00;;;21.40;99.90;;;;;;5113060;28;20204;-60
2022/07/04 02:42:20;;;;;;;2.05;1.10;;;21.40;99.90;;;;;;5104317;28;20220;-59
2022/07/04 02:44:47;;;;;;;1.10;1.10;;;21.50;99.90;;;;;;5094819;28;20222;-60
2022/07/04 02:47:14;;;;;;;2.38;1.20;;;21.50;99.90;;;;;;5103665;28;20235;-61
2022/07/04 02:49:41;;;;;;;1.00;1.00;;;21.50;99.90;;;;;;5112881;28;20252;-61
2022/07/04 02:52:08;;;;;;;1.45;1.35;;;21.60;99.90;;;;;;5111844;28;20199;-61
2022/07/04 02:54:36;;;;;;;1.65;1.55;;;21.60;99.90;;;;;;5112966;28;20257;-60
2022/07/04 02:57:03;;;;;;;1.70;1.60;;;21.50;99.90;;;;;;5112194;28;20254;-61
2022/07/04 02:59:31;;;;;;;1.50;1.40;;;21.50;99.90;;;;;;5111333;28;20208;-60
2022/07/04 03:01:58;;;;;;;1.65;1.27;;;21.50;99.90;;;;;;5110136;28;20195;-59
2022/07/04 03:04:25;;;;;;;1.70;1.60;;;21.60;99.90;;;;;;5112082;28;20244;-60
2022/07/04 03:06:52;;;;;;;1.42;1.33;;;21.50;99.90;;;;;;5109261;28;20208;-61
2022/07/04 03:09:19;;;;;;;1.40;1.30;;;21.50;99.90;;;;;;5111470;28;20203;-60
2022/07/04 03:11:47;;;;;;;1.80;1.40;;;21.50;99.90;;;;;;5109782;28;20199;-60
2022/07/04 03:14:14;;;;;;;1.38;1.38;;;21.50;99.90;;;;;;5109050;28;20555;-60
2022/07/04 03:16:42;;;;;;;1.42;1.40;;;21.50;99.90;;;;;;5110676;28;20215;-60
2022/07/04 03:19:10;;;;;;;1.70;1.60;;;21.60;99.90;;;;;;5112075;28;20192;-61
2022/07/04 03:21:37;;;;;;;3.22;1.38;;;21.60;99.90;;;;;;5106848;28;20204;-60
2022/07/04 03:24:04;;;;;;;1.63;1.52;;;21.60;99.90;;;;;;5106651;28;20195;-62
2022/07/04 03:26:33;;;;;;;1.45;1.35;;;21.60;99.90;;;;;;5102177;28;20659;-60
2022/07/04 03:29:01;;;;;;;1.20;1.20;;;21.60;99.90;;;;;;5111400;28;20196;-59
2022/07/04 03:31:29;;;;;;;1.27;1.27;;;21.60;99.90;;;;;;5098330;28;20596;-60
2022/07/04 03:33:58;;;;;;;1.38;1.30;;;21.60;99.90;;;;;;5109530;28;20627;-61
2022/07/04 03:36:25;;;;;;;1.08;1.08;;;21.60;99.90;;;;;;5104648;28;20294;-60
2022/07/04 03:38:52;;;;;;;1.45;1.35;;;21.70;99.90;;;;;;5110093;28;20250;-60
2022/07/04 03:41:19;;;;;;;1.08;1.08;;;21.70;99.90;;;;;;5104809;28;20184;-60
2022/07/04 03:43:46;;;;;;;1.02;1.02;;;21.70;99.90;;;;;;5109326;28;20230;-60
2022/07/04 03:46:13;;;;;;;1.20;1.20;;;21.70;99.90;;;;;;5108202;28;20191;-59
2022/07/04 03:48:43;;;;;;;1.00;1.00;;;21.70;99.90;;;;;;5107173;28;20192;-60
2022/07/04 03:51:11;;;;;;;1.02;1.02;;;21.80;99.90;;;;;;5110253;28;20223;-60
2022/07/04 03:53:39;;;;;;;1.20;1.20;;;21.80;99.90;;;;;;5111049;28;20233;-60
2022/07/04 03:56:07;;;;;;;1.02;1.02;;;21.80;99.90;;;;;;5110643;28;20226;-61
2022/07/04 03:58:34;;;;;;;1.55;1.27;;;21.90;99.90;;;;;;5110830;28;20195;-60
2022/07/04 04:01:01;;;;;;;1.20;1.10;;;21.90;99.90;;;;;;5101147;28;20695;-60
2022/07/04 04:06:14;;;;;;;1.30;1.20;;;21.90;99.90;;;;;;5101724;28;20183;-60
2022/07/04 04:08:41;;;;;;;1.85;1.63;;;21.90;99.90;;;;;;5110062;28;20257;-60
2022/07/04 04:11:08;;;;;;;1.20;1.20;;;21.90;99.90;;;;;;5110132;28;20203;-60
2022/07/04 04:13:35;;;;;;;1.35;1.25;;;22.00;99.90;;;;;;5103909;28;20678;-60
2022/07/04 04:16:02;;;;;;;1.10;1.10;;;22.00;99.90;;;;;;5110339;28;20255;-61
2022/07/04 04:18:29;;;;;;;1.20;1.20;;;22.00;99.90;;;;;;5110114;28;20651;-60
2022/07/04 04:20:56;;;;;;;1.50;1.33;;;22.00;99.90;;;;;;5107212;28;20204;-60
2022/07/04 04:23:25;;;;;;;1.85;1.67;;;22.00;99.90;;;;;;5108989;28;20626;-60
2022/07/04 04:25:52;;;;;;;1.63;1.50;;;22.00;99.90;;;;;;5110764;28;20258;-60
2022/07/04 04:28:19;;;;;;;1.55;1.40;;;22.00;99.90;;;;;;5110434;28;20694;-61
2022/07/04 04:30:46;;;;;;;2.17;1.50;;;22.00;99.90;;;;;;5110028;28;20549;-61
2022/07/04 04:33:13;;;;;;;1.20;1.20;;;22.00;99.90;;;;;;5101411;28;20295;-61
2022/07/04 04:35:40;;;;;;;1.27;1.20;;;21.90;99.90;;;;;;5109124;28;20693;-60
2022/07/04 04:38:07;;;;;;;1.35;1.33;;;22.00;99.90;;;;;;5109735;28;20219;-60
2022/07/04 04:40:35;;;;;;;2.60;1.17;;;21.90;99.90;;;;;;5110430;28;20188;-60
2022/07/04 04:43:03;;;;;;;1.30;1.20;;;21.90;99.90;;;;;;5102716;28;20199;-59
2022/07/04 04:45:30;;;;;;;1.05;1.05;;;21.90;99.90;;;;;;5108658;28;20189;-60
2022/07/04 04:47:57;;;;;;;1.00;1.00;;;21.90;99.90;;;;;;5108772;28;20264;-60
2022/07/04 04:50:24;;;;;;;1.17;1.10;;;21.90;99.90;;;;;;5107399;28;20585;-61
2022/07/04 04:52:51;;;;;;;1.13;0.90;;;21.90;99.90;;;;;;5102431;28;20287;-61
2022/07/04 04:55:18;;;;;;;1.35;1.20;;;21.90;99.90;;;;;;5093390;28;20224;-60
2022/07/04 04:57:46;;;;;;;1.48;1.33;;;21.90;99.90;;;;;;5100276;28;20215;-61
2022/07/04 05:00:14;;;;;;;1.80;1.60;;;22.00;99.90;;;;;;5102547;28;20230;-61
2022/07/04 05:02:41;;;;;;;1.60;1.50;;;22.00;99.90;;;;;;5109350;28;20265;-59
2022/07/04 05:05:08;;;;;;;2.20;1.55;;;22.00;99.90;;;;;;5110436;28;20194;-60
2022/07/04 05:07:35;;;;;;;3.05;1.70;;;22.00;99.90;;;;;;5108643;28;20604;-61
2022/07/04 05:10:03;;;;;;;1.92;1.50;;;22.00;99.90;;;;;;5105917;28;20216;-60
2022/07/04 05:12:30;;;;;;;1.63;1.40;;;22.00;99.90;;;;;;5106860;28;20208;-60
2022/07/04 05:14:59;;;;;;;1.70;1.58;;;22.00;99.90;;;;;;5110028;28;20202;-60
2022/07/04 05:17:26;;;;;;;1.58;1.48;;;22.10;99.90;;;;;;5106966;28;20318;-60
2022/07/04 05:19:53;;;;;;;1.10;1.10;;;22.10;99.90;;;;;;5110110;28;20196;-60
2022/07/04 05:22:20;;;;;;;1.90;1.77;;;22.20;99.90;;;;;;5106734;28;20702;-60
2022/07/04 05:24:47;;;;;;;1.50;1.40;;;22.20;99.90;;;;;;5110036;28;20615;-60
2022/07/04 05:27:14;;;;;;;1.60;1.50;;;22.20;99.90;;;;;;5109196;28;20223;-61
2022/07/04 05:29:41;;;;;;;2.03;1.35;;;22.30;99.90;;;;;;5109640;28;20199;-63
2022/07/04 05:32:10;;;;;;;3.10;1.83;;;22.30;99.90;;;;;;5108833;28;20233;-61
2022/07/04 05:34:37;;;;;;;1.73;1.63;;;22.40;99.90;;;;;;5098556;28;20199;-61
2022/07/04 05:37:05;;;;;;;1.80;1.70;;;22.40;99.90;;;;;;5109328;28;20215;-61
2022/07/04 05:39:32;;;;;;;4.97;1.48;;;22.40;99.90;;;;;;5109838;28;20234;-60
2022/07/04 05:41:59;;;;;;;2.33;1.80;;;22.40;99.90;;;;;;5104898;28;20246;-60
2022/07/04 05:44:26;;;;;;;1.38;1.33;;;22.40;99.90;;;;;;5100484;28;20667;-61
2022/07/04 05:46:53;;;;;;;1.80;1.70;;;22.40;99.90;;;;;;5096113;28;20661;-61
2022/07/04 05:49:21;;;;;;;3.08;1.75;;;22.40;99.90;;;;;;5100983;28;20643;-60
2022/07/04 05:51:48;;;;;;;1.80;1.60;;;22.50;99.90;;;;;;5101965;28;20188;-60
2022/07/04 05:54:15;;;;;;;1.55;1.45;;;22.50;99.90;;;;;;5106974;28;20595;-61
2022/07/04 05:56:42;;;;;;;1.60;1.50;;;22.50;99.90;;;;;;5108097;28;20219;-60
2022/07/04 05:59:10;;;;;;;1.95;1.40;;;22.50;99.90;;;;;;5107724;28;20203;-61
2022/07/04 06:01:37;;;;;;;1.88;1.10;;;22.50;99.90;;;;;;5107822;28;20196;-60
2022/07/04 06:04:05;;;;;;;1.25;1.15;;;22.60;99.90;;;;;;5108385;28;20817;-61
2022/07/04 06:06:34;;;;;;;1.30;1.20;;;22.60;99.90;;;;;;5107144;28;20337;-60
2022/07/04 06:09:02;;;;;;;2.10;1.90;;;22.60;99.90;;;;;;5096090;28;20235;-62
2022/07/04 06:11:30;;;;;;;1.60;1.50;;;22.60;99.90;;;;;;5102467;28;20535;-60
2022/07/04 06:13:57;;;;;;;1.70;1.60;;;22.70;99.90;;;;;;5100989;28;20289;-60
2022/07/04 06:16:24;;;;;;;1.10;1.00;;;22.70;99.90;;;;;;5097509;28;20745;-60
2022/07/04 06:18:51;;;;;;;2.10;1.40;;;22.70;99.90;;;;;;5101049;28;20674;-60
2022/07/04 06:21:18;;;;;;;3.58;1.60;;;22.80;99.90;;;;;;5100943;28;20203;-60
2022/07/04 06:23:47;;;;;;;1.73;1.30;;;22.80;99.90;;;;;;5102599;28;20196;-59
2022/07/04 06:26:14;;;;;;;1.63;1.52;;;22.80;99.90;;;;;;5094745;28;20648;-60
2022/07/04 06:28:41;;;;;;;3.10;1.55;;;22.90;99.90;;;;;;5092410;28;20710;-60
2022/07/04 06:31:08;;;;;;;2.38;1.42;;;22.90;99.90;;;;;;5092431;28;20197;-60
2022/07/04 06:35:44;;;;;;;1.15;1.15;;;23.00;99.90;;;;;;5105827;28;21163;-60
2022/07/04 06:36:22;;;;;;;1.17;1.10;;;23.00;99.90;;;;;;5111487;28;20232;-59
2022/07/04 06:38:50;;;;;;;2.22;1.20;;;23.10;99.90;;;;;;5111634;28;20666;-60
2022/07/04 06:41:18;;;;;;;1.42;1.33;;;23.10;99.90;;;;;;5112008;28;20195;-59
2022/07/04 06:43:44;;;;;;;4.38;1.90;;;23.20;99.90;;;;;;5106709;28;20280;-59
2022/07/04 06:46:11;;;;;;;2.67;1.90;;;23.20;99.90;;;;;;5111846;28;20223;-60
2022/07/04 06:48:38;;;;;;;3.15;1.90;;;23.30;99.90;;;;;;5112156;28;20220;-59
2022/07/04 06:51:06;;;;;;;1.73;1.63;;;23.30;99.90;;;;;;5093545;28;20730;-59
2022/07/04 06:53:33;;;;;;;2.80;1.70;;;23.30;99.90;;;;;;5092443;28;20743;-60
2022/07/04 06:56:01;;;;;;;1.88;1.75;;;23.40;99.90;;;;;;5111590;28;20710;-60
2022/07/04 06:58:29;;;;;;;1.95;1.85;;;23.40;99.90;;;;;;5112964;28;20192;-60
2022/07/04 07:00:56;;;;;;;2.78;1.83;;;23.50;99.90;;;;;;5097840;28;20207;-59
2022/07/04 07:03:23;;;;;;;11.45;2.40;;;23.50;99.90;;;;;;5111613;28;20571;-59
2022/07/04 07:05:50;;;;;;;4.00;1.88;;;23.50;99.90;;;;;;5112265;28;20231;-59
2022/07/04 07:08:17;;;;;;;2.25;2.05;;;23.60;99.90;;;;;;5111974;28;20211;-59
2022/07/04 07:10:44;;;;;;;3.58;2.20;;;23.60;99.90;;;;;;5097387;28;20215;-59
2022/07/04 07:13:14;;;;;;;5.20;1.90;;;23.70;99.90;;;;;;5113041;28;20324;-59
2022/07/04 07:15:41;;;;;;;2.40;2.05;;;23.80;99.90;;;;;;5109637;28;20618;-59
2022/07/04 07:18:08;;;;;;;1.88;1.70;;;23.80;99.90;;;;;;5111474;28;20204;-59
2022/07/04 07:20:35;;;;;;;2.83;1.30;;;23.90;99.90;;;;;;5111987;28;20282;-60
2022/07/04 07:23:03;;;;;;;1.23;1.23;;;24.00;99.90;;;;;;5108500;27;20200;-59
2022/07/04 07:25:31;;;;;;;2.70;1.70;;;24.00;99.90;;;;;;5111281;28;20196;-59
2022/07/04 07:27:58;;;;;;;3.63;2.10;;;24.10;99.90;;;;;;5111696;28;20245;-59
2022/07/04 07:30:26;;;;;;;2.03;1.80;;;24.20;99.90;;;;;;5111901;28;20223;-60
2022/07/04 07:32:54;;;;;;;1.70;1.60;;;24.20;99.90;;;;;;5090935;28;20208;-60
2022/07/04 07:35:21;;;;;;;1.75;1.60;;;24.20;99.90;;;;;;5110009;28;20303;-60
2022/07/04 07:37:48;;;;;;;3.92;1.63;;;24.20;99.90;;;;;;5110328;28;20212;-59
2022/07/04 07:40:15;;;;;;;1.95;1.85;;;24.20;99.90;;;;;;5111940;28;20600;-59
2022/07/04 07:42:42;;;;;;;3.25;2.13;;;24.20;99.90;;;;;;5107693;28;20241;-59
2022/07/04 07:45:10;;;;;;;1.48;1.42;;;24.20;99.90;;;;;;5109481;28;20194;-59
2022/07/04 07:47:38;;;;;;;1.70;1.60;;;24.20;99.90;;;;;;5110143;28;20199;-59
2022/07/04 07:50:06;;;;;;;1.40;1.30;;;24.30;99.90;;;;;;5112160;28;20270;-60
2022/07/04 07:52:34;;;;;;;1.33;1.23;;;24.30;99.90;;;;;;5110630;28;20210;-60
2022/07/04 07:55:01;;;;;;;2.03;1.50;;;24.50;99.90;;;;;;5111763;28;20198;-60
2022/07/04 07:57:28;;;;;;;1.92;1.83;;;24.50;99.90;;;;;;5111239;28;20227;-59
2022/07/04 07:59:55;;;;;;;2.88;1.67;;;24.60;99.90;;;;;;5090064;28;20204;-59
2022/07/04 08:04:33;;;;;;;1.70;1.60;;;24.60;99.90;;;;;;5103221;28;20345;-59
2022/07/04 08:05:11;;;;;;;1.70;1.60;;;24.60;99.90;;;;;;5110926;28;20192;-59
2022/07/04 08:07:38;;;;;;;1.48;1.38;;;24.60;99.90;;;;;;5110009;28;20249;-59
2022/07/04 08:10:06;;;;;;;2.58;1.20;;;24.50;99.80;;;;;;5111834;28;20369;-59
2022/07/04 08:12:34;;;;;;;1.20;1.10;;;24.50;99.20;;;;;;5100254;28;20196;-59
2022/07/04 08:15:00;;;;;;;1.23;1.13;;;24.50;98.80;;;;;;5098764;28;20224;-58
2022/07/04 08:17:28;;;;;;;0.98;0.98;;;24.50;98.10;;;;;;5109100;28;20235;-59
2022/07/04 08:19:55;;;;;;;1.27;1.20;;;24.50;97.70;;;;;;5102611;28;20231;-59
2022/07/04 08:22:23;;;;;;;1.52;1.40;;;24.40;96.60;;;;;;5109587;28;20200;-59
2022/07/04 08:24:50;;;;;;;1.30;1.20;;;24.40;96.10;;;;;;5102045;28;20215;-60
2022/07/04 08:27:18;;;;;;;0.90;0.90;;;24.40;95.80;;;;;;5110604;28;20723;-60
2022/07/04 08:29:45;;;;;;;2.90;1.20;;;24.30;96.10;;;;;;5111471;28;20601;-59
2022/07/04 08:32:12;;;;;;;1.60;1.30;;;24.30;95.30;;;;;;5110047;28;20302;-60
2022/07/04 08:34:39;;;;;;;0.90;0.90;;;24.20;94.90;;;;;;5111325;28;20196;-60
2022/07/04 08:37:06;;;;;;;1.35;1.23;;;24.20;94.90;;;;;;5110394;28;20208;-60
2022/07/04 08:39:34;;;;;;;0.98;0.98;;;24.20;94.90;;;;;;5111455;28;20202;-60
2022/07/04 08:42:06;;;;;;;1.00;0.90;;;24.10;94.90;;;;;;5108379;28;20625;-60
2022/07/04 08:44:36;;;;;;;0.95;0.95;;;24.10;95.00;;;;;;5105131;28;20659;-60
2022/07/04 08:47:04;;;;;;;1.88;0.90;;;24.10;95.00;;;;;;5109412;28;20188;-61
2022/07/04 08:49:34;;;;;;;3.90;1.13;;;24.10;95.00;;;;;;5111138;28;20639;-60
2022/07/04 08:52:05;;;;;;;1.25;1.25;;;24.10;95.00;;;;;;5107961;28;20199;-59
2022/07/04 09:00:06;;;;;;;1.42;1.33;;;24.00;95.00;;;;;;5108877;28;20191;-58
2022/07/04 09:02:36;;;;;;;1.25;1.25;;;23.90;95.10;;;;;;5108350;28;20199;-60
2022/07/04 09:05:03;;;;;;;0.82;0.82;;;24.00;95.10;;;;;;5100528;28;20219;-60
2022/07/04 09:07:30;;;;;;;1.15;1.10;;;23.90;95.20;;;;;;5108798;28;20200;-59
2022/07/04 09:09:59;;;;;;;1.35;1.25;;;23.90;95.20;;;;;;5111129;28;20214;-59
2022/07/04 09:12:26;;;;;;;1.88;1.40;;;23.90;95.10;;;;;;5109707;28;20192;-60
2022/07/04 09:14:54;;;;;;;1.10;1.10;;;23.90;95.10;;;;;;5110169;28;20249;-59
2022/07/04 09:17:22;;;;;;;1.23;1.13;;;23.90;95.10;;;;;;5108697;28;20240;-60
2022/07/04 09:20:14;;;;;;;1.10;1.10;;;23.90;95.20;;;;;;5110776;28;20628;-61
2022/07/04 09:22:41;;;;;;;1.40;1.30;;;23.80;95.40;;;;;;5106767;28;20191;-60
2022/07/04 09:25:12;;;;;;;2.53;1.42;;;23.80;95.00;;;;;;5110280;28;20223;-59
2022/07/04 09:27:41;;;;;;;1.70;1.50;;;23.80;95.00;;;;;;5110091;28;20184;-60
2022/07/04 09:30:10;;;;;;;2.55;1.48;;;23.80;95.10;;;;;;5105281;28;20559;-60
2022/07/04 09:32:38;;;;;;;1.75;1.45;;;23.70;95.30;;;;;;5109158;28;20719;-59
2022/07/04 09:35:07;;;;;;;1.17;1.15;;;23.70;95.90;;;;;;5110590;28;20230;-59
2022/07/04 09:37:39;;;;;;;1.52;1.40;;;23.70;95.70;;;;;;5109071;28;20208;-60
2022/07/04 09:40:10;;;;;;;2.25;1.40;;;23.60;95.80;;;;;;5107091;28;20555;-60
2022/07/04 09:42:39;;;;;;;1.38;1.38;;;23.60;96.00;;;;;;5105521;28;20189;-60
2022/07/04 09:45:08;;;;;;;1.58;1.45;;;23.60;96.20;;;;;;5109095;28;20724;-59
2022/07/04 09:47:36;;;;;;;1.63;1.52;;;23.60;96.40;;;;;;5108477;28;20200;-59
2022/07/04 09:50:05;;;;;;;1.50;1.40;;;23.60;96.80;;;;;;5109497;28;20275;-60
2022/07/04 09:52:33;;;;;;;9.23;1.67;;;23.60;97.00;;;;;;5108515;28;20252;-59
2022/07/04 09:55:02;;;;;;;1.35;1.30;;;23.60;97.00;;;;;;5092264;28;20212;-59
2022/07/04 09:57:30;;;;;;;1.73;1.55;;;23.60;97.00;;;;;;5109329;28;20643;-59
2022/07/04 09:59:57;;;;;;;1.60;1.50;;;23.70;97.00;;;;;;5109431;28;20204;-59
2022/07/04 10:02:24;;;;;;;1.30;1.20;;;23.60;96.90;;;;;;5107105;28;20261;-59
2022/07/04 10:04:55;;;;;;;1.42;1.33;;;23.70;96.90;;;;;;5110404;28;20639;-59
2022/07/04 10:07:36;;;;;;;2.38;1.00;;;23.70;96.80;;;;;;5109847;28;20203;-60
2022/07/04 10:10:23;;;;;;;2.45;0.98;;;23.70;96.80;;;;;;5107081;28;20195;-60
2022/07/04 10:12:53;;;;;;;1.58;1.30;;;23.80;96.80;;;;;;5107706;28;20191;-59
2022/07/04 10:15:20;;;;;;;1.40;1.10;;;23.80;96.70;;;;;;5113586;28;20274;-59
2022/07/04 10:17:47;;;;;;;1.65;1.55;;;23.80;96.60;;;;;;5112068;28;20266;-60
2022/07/04 10:20:15;;;;;;;12.02;1.73;;;23.80;96.30;;;;;;5113813;28;20627;-60
2022/07/04 10:22:42;;;;;;;1.50;1.40;;;23.90;96.20;;;;;;5110228;28;20206;-60
2022/07/04 10:25:10;;;;;;;1.58;1.42;;;23.90;96.20;;;;;;5114081;28;20582;-60
2022/07/04 10:27:38;;;;;;;1.30;1.20;;;23.90;96.00;;;;;;5111493;28;20191;-59
2022/07/04 10:30:12;;;;;;;1.05;1.05;;;24.10;95.90;;;;;;5113334;28;20195;-60
2022/07/04 10:32:39;;;;;;;2.05;1.20;;;24.20;95.80;;;;;;5111891;28;20244;-60
2022/07/04 10:35:07;;;;;;;1.75;1.00;;;24.30;95.60;;;;;;5113642;28;20227;-59
2022/07/04 10:38:01;;;;;;;1.60;1.50;;;24.40;95.40;;;;;;5111091;28;20679;-59
2022/07/04 10:40:45;;;;;;;1.25;1.20;;;24.50;95.10;;;;;;5113278;28;20208;-59
2022/07/04 10:44:00;;;;;;;3.22;1.13;;;24.60;95.10;;;;;;5100415;28;20540;-60
2022/07/04 10:46:38;;;;;;;1.33;1.23;;;24.60;95.00;;;;;;5106117;28;20279;-59
2022/07/04 10:49:08;;;;;;;1.30;1.20;;;24.70;95.00;;;;;;5113083;28;20604;-59
2022/07/04 10:51:46;;;;;;;2.67;1.52;;;24.70;94.70;;;;;;5112432;28;20199;-60
2022/07/04 10:54:16;;;;;;;1.20;1.10;;;24.80;94.50;;;;;;5103270;28;20191;-60
2022/07/04 10:56:45;;;;;;;1.20;1.10;;;24.90;94.40;;;;;;5112373;28;20224;-60
2022/07/04 10:59:15;;;;;;;2.45;1.30;;;25.00;94.40;;;;;;5112482;28;20611;-59
2022/07/04 11:01:52;;;;;;;1.08;1.08;;;25.00;94.10;;;;;;5101795;28;20686;-60
2022/07/04 11:05:02;;;;;;;1.25;1.15;;;25.10;93.80;;;;;;5112108;28;20196;-60
2022/07/04 11:07:58;;;;;;;1.10;1.10;;;25.20;93.80;;;;;;5090577;28;20218;-60
2022/07/04 11:10:26;;;;;;;2.80;1.30;;;25.40;93.30;;;;;;5111904;28;20195;-60
2022/07/04 11:13:15;;;;;;;1.85;1.30;;;25.40;92.80;;;;;;5112321;28;20269;-60
2022/07/04 11:16:02;;;;;;;1.20;1.20;;;25.50;92.50;;;;;;5112195;28;20585;-59
2022/07/04 11:18:31;;;;;;;1.27;1.17;;;25.70;92.60;;;;;;5101497;28;20212;-59
2022/07/04 11:20:58;;;;;;;1.30;1.30;;;25.80;92.30;;;;;;5108135;28;20596;-59
2022/07/04 11:23:25;;;;;;;1.20;1.20;;;25.90;92.20;;;;;;5106695;28;20295;-59
2022/07/04 11:25:55;;;;;;;1.20;1.20;;;25.90;91.90;;;;;;5111305;28;20200;-59
2022/07/04 11:28:24;;;;;;;1.45;1.35;;;26.00;91.70;;;;;;5111507;28;20191;-59
2022/07/04 11:30:52;;;;;;;1.45;1.17;;;26.10;91.60;;;;;;5111754;28;20650;-59
2022/07/04 11:33:21;;;;;;;2.05;1.30;;;26.10;91.10;;;;;;5100634;28;20187;-59
2022/07/04 11:36:06;;;;;;;1.10;1.10;;;26.10;90.40;;;;;;5101414;28;20605;-59
2022/07/04 11:38:51;;;;;;;1.10;1.10;;;26.20;89.90;;;;;;5110551;28;20240;-59
2022/07/04 11:46:49;;;;;;;1.10;1.00;;;26.50;86.60;;;;;;5105909;28;20192;-59
2022/07/04 11:49:16;;;;;;;0.95;0.95;;;26.60;85.20;;;;;;5112236;28;20600;-59
2022/07/04 11:51:47;;;;;;;1.00;1.00;;;26.60;84.40;;;;;;5110076;28;20196;-59
2022/07/04 11:54:14;;;;;;;0.90;0.90;;;26.60;84.30;;;;;;5111182;28;20200;-59
2022/07/04 11:56:41;;;;;;;0.90;0.90;;;26.60;83.10;;;;;;5111139;28;20595;-59
2022/07/04 11:59:13;;;;;;;1.17;1.17;;;26.60;83.20;;;;;;5101279;28;20212;-59
2022/07/04 12:01:41;;;;;;;0.73;0.73;;;26.60;83.10;;;;;;5096079;28;20211;-59
2022/07/04 12:04:16;;;;;;;1.00;1.00;;;26.60;83.30;;;;;;5111380;28;20184;-59
2022/07/04 12:06:47;;;;;;;0.95;0.95;;;26.60;82.80;;;;;;5110363;28;20282;-59
2022/07/04 12:09:16;;;;;;;1.00;1.00;;;26.60;82.20;;;;;;5111030;28;20184;-59
2022/07/04 12:11:58;;;;;;;1.13;1.10;;;26.60;81.90;;;;;;5106625;28;20193;-59
2022/07/04 12:14:26;;;;;;;0.90;0.90;;;26.60;81.10;;;;;;5097449;28;20256;-59
2022/07/04 12:17:18;;;;;;;0.73;0.73;;;26.50;80.80;;;;;;5110095;28;20195;-59
2022/07/04 12:19:52;;;;;;;1.00;1.00;;;26.50;80.60;;;;;;5111526;28;20231;-59
2022/07/04 12:22:42;;;;;;;0.95;0.95;;;26.40;79.70;;;;;;5109780;28;20213;-59
2022/07/04 12:25:22;;;;;;;0.90;0.90;;;26.40;80.00;;;;;;5100068;28;20208;-59
2022/07/04 12:27:57;;;;;;;1.00;1.00;;;26.60;80.10;;;;;;5110253;28;20202;-58
2022/07/04 12:30:25;;;;;;;1.42;1.05;;;26.60;80.30;;;;;;5111348;28;20248;-59
2022/07/04 12:32:54;;;;;;;0.90;0.90;;;26.70;79.50;;;;;;5109477;28;20215;-59
2022/07/04 12:35:43;;;;;;;1.25;1.15;;;26.70;79.00;;;;;;5111383;28;20842;-59
2022/07/04 12:38:13;;;;;;;1.15;1.15;;;26.70;78.40;;;;;;5110084;28;20211;-59
2022/07/04 12:40:53;;;;;;;1.10;1.10;;;26.70;78.30;;;;;;5110944;28;20188;-59
2022/07/04 12:43:20;;;;;;;0.90;0.90;;;26.70;78.40;;;;;;5100803;28;20196;-59
2022/07/04 12:45:49;;;;;;;0.90;0.90;;;26.80;78.30;;;;;;5098437;28;20624;-60
2022/07/04 12:48:17;;;;;;;0.98;0.98;;;26.90;78.10;;;;;;5108999;28;20245;-59
2022/07/04 12:50:45;;;;;;;1.00;0.93;;;26.90;77.80;;;;;;5109275;28;20203;-59
2022/07/04 12:53:13;;;;;;;0.85;0.85;;;26.80;77.70;;;;;;5109839;28;20287;-59
2022/07/04 12:55:42;;;;;;;0.95;0.95;;;26.80;78.00;;;;;;5109490;28;20698;-59
2022/07/04 12:58:10;;;;;;;0.90;0.90;;;26.80;78.20;;;;;;5110956;28;20708;-59
2022/07/04 13:00:39;;;;;;;0.80;0.80;;;26.80;79.30;;;;;;5095707;28;20211;-58
2022/07/04 13:03:06;;;;;;;0.98;0.90;;;26.80;79.00;;;;;;5109668;28;20199;-60
2022/07/04 13:05:35;;;;;;;7.88;1.33;;;26.70;79.40;;;;;;5110358;28;20307;-60
2022/07/04 13:08:03;;;;;;;0.98;0.98;;;26.70;80.20;;;;;;5109452;28;20194;-60
2022/07/04 13:10:32;;;;;;;0.90;0.90;;;26.70;80.90;;;;;;5110809;28;20216;-60
2022/07/04 13:12:59;;;;;;;1.10;1.10;;;26.60;81.40;;;;;;5110371;28;20226;-60
2022/07/04 13:15:27;;;;;;;1.20;1.20;;;26.60;82.00;;;;;;5106899;28;20231;-60
2022/07/04 13:17:54;;;;;;;1.27;1.23;;;26.50;82.80;;;;;;5109215;28;20215;-60